Time;durP1;ratioP1;P1;durP2;ratioP2;P2;SDS_P1;SDS_P2;PMS_P1;PMS_P2;Temp;Humidity;BMP_temperature;BMP_pressure;BME280_temperature;BME280_humidity;BME280_pressure;Samples;Min_cycle;Max_cycle;Signal;HPM_P1;HPM_P2
2023/06/24 00:00:40;;;;;;;4.23;3.70;;;;;;;17.69;68.27;99722.84;5178700;27;42065;-80
2023/06/24 00:03:08;;;;;;;4.03;3.73;;;;;;;17.68;68.62;99726.50;5176765;27;39158;-80
2023/06/24 00:05:35;;;;;;;4.17;3.83;;;;;;;17.68;68.36;99731.88;5196262;27;41740;-81
2023/06/24 00:08:06;;;;;;;3.83;3.53;;;;;;;17.53;68.88;99712.44;5177504;27;42755;-83
2023/06/24 00:10:35;;;;;;;3.90;3.60;;;;;;;17.56;68.77;99729.13;5160027;27;41161;-81
2023/06/24 00:13:03;;;;;;;3.70;3.40;;;;;;;17.56;69.21;99734.47;5159804;27;39321;-81
2023/06/24 00:15:31;;;;;;;4.40;4.00;;;;;;;17.52;69.12;99737.53;5159528;27;40678;-80
2023/06/24 00:18:05;;;;;;;3.37;3.17;;;;;;;17.37;69.54;99718.13;5177338;27;41878;-83
2023/06/24 00:20:33;;;;;;;4.53;4.13;;;;;;;17.34;69.89;99710.31;5159823;27;41452;-83
2023/06/24 00:23:01;;;;;;;3.87;3.47;;;;;;;17.40;69.94;99722.41;5177553;27;40056;-82
2023/06/24 00:25:28;;;;;;;4.13;3.53;;;;;;;17.38;69.50;99732.38;5177627;27;41765;-81
2023/06/24 00:27:57;;;;;;;4.37;3.97;;;;;;;17.27;69.94;99722.47;5159364;27;42615;-82
2023/06/24 00:30:26;;;;;;;4.30;3.90;;;;;;;17.30;69.85;99738.31;5177288;27;41466;-82
2023/06/24 00:32:54;;;;;;;3.63;3.33;;;;;;;17.30;70.30;99748.19;5176708;27;39096;-84
2023/06/24 00:35:22;;;;;;;3.70;3.40;;;;;;;17.27;70.27;99743.03;5175219;27;41689;-83
2023/06/24 00:37:49;;;;;;;3.97;3.57;;;;;;;17.19;70.55;99735.56;5177721;27;41566;-82
2023/06/24 00:40:18;;;;;;;4.00;3.70;;;;;;;17.11;70.51;99725.47;5177816;27;43285;-82
2023/06/24 00:42:46;;;;;;;3.80;3.50;;;;;;;17.18;70.41;99736.56;5160308;27;39902;-83
2023/06/24 00:45:17;;;;;;;3.67;3.27;;;;;;;16.82;70.54;99684.81;5160670;27;42308;-81
2023/06/24 00:47:45;;;;;;;3.67;3.37;;;;;;;17.03;70.38;99721.66;5176755;27;43774;-82
2023/06/24 00:50:13;;;;;;;3.90;3.50;;;;;;;17.09;70.41;99731.91;5160390;27;41235;-83
2023/06/24 00:52:42;;;;;;;3.57;3.27;;;;;;;17.06;70.36;99730.28;5159947;27;39977;-85
2023/06/24 00:55:11;;;;;;;3.60;3.30;;;;;;;17.03;70.39;99729.69;5160367;27;41776;-84
2023/06/24 00:57:40;;;;;;;3.83;3.53;;;;;;;16.99;70.81;99728.22;5159990;27;41913;-81
2023/06/24 01:00:13;;;;;;;3.83;3.53;;;;;;;16.83;71.22;99713.28;5177638;27;42657;-83
2023/06/24 01:02:44;;;;;;;4.40;4.00;;;;;;;16.78;71.31;99710.13;5176026;27;38794;-82
2023/06/24 01:05:12;;;;;;;4.00;3.60;;;;;;;16.83;71.43;99726.66;5159030;27;40511;-84
2023/06/24 01:07:40;;;;;;;4.53;4.13;;;;;;;16.68;71.25;99717.13;5176427;27;43015;-85
2023/06/24 01:10:11;;;;;;;4.40;3.60;;;;;;;16.64;71.27;99704.94;5176784;27;42290;-82
2023/06/24 01:12:43;;;;;;;4.00;3.70;;;;;;;16.66;71.17;99723.56;5175374;27;39927;-80
2023/06/24 01:15:12;;;;;;;3.73;3.43;;;;;;;16.64;71.12;99723.66;5173925;27;41823;-80
2023/06/24 01:17:49;;;;;;;3.77;3.47;;;;;;;16.51;71.61;99707.63;5175690;27;42183;-83
2023/06/24 01:20:27;;;;;;;4.07;3.67;;;;;;;16.44;71.46;99695.66;5159179;27;41136;-82
2023/06/24 01:23:17;;;;;;;3.97;3.57;;;;;;;16.44;71.69;99722.41;5175468;27;40054;-83
2023/06/24 01:26:11;;;;;;;3.83;3.53;;;;;;;16.42;71.58;99723.50;5159738;27;40858;-83
2023/06/24 01:29:10;;;;;;;4.10;3.77;;;;;;;16.39;71.78;99718.38;5156176;27;41576;-80
2023/06/24 01:31:46;;;;;;;3.70;3.40;;;;;;;16.20;71.65;99704.59;5158976;27;41260;-83
2023/06/24 01:34:23;;;;;;;4.07;3.77;;;;;;;16.27;71.54;99713.91;5160106;27;40935;-83
2023/06/24 01:37:09;;;;;;;3.93;3.60;;;;;;;15.89;72.11;99660.53;5193304;27;41785;-83
2023/06/24 01:39:43;;;;;;;3.63;3.33;;;;;;;16.05;71.49;99688.75;5196039;27;42714;-79
2023/06/24 01:42:15;;;;;;;3.67;3.37;;;;;;;16.06;72.03;99690.44;5171449;27;41364;-80
2023/06/24 01:44:46;;;;;;;3.60;3.30;;;;;;;16.15;71.80;99705.81;5180094;27;40563;-82
2023/06/24 01:47:20;;;;;;;3.43;3.13;;;;;;;16.11;71.99;99709.66;5159813;27;42169;-81
2023/06/24 01:49:49;;;;;;;3.80;3.50;;;;;;;16.09;72.51;99706.22;5174767;27;42792;-83
2023/06/24 01:52:19;;;;;;;3.57;3.27;;;;;;;16.07;72.68;99702.00;5160456;27;41160;-85
2023/06/24 01:54:49;;;;;;;4.20;3.80;;;;;;;16.05;72.35;99704.78;5160325;27;39178;-83
2023/06/24 01:57:19;;;;;;;4.27;3.87;;;;;;;16.05;72.54;99707.44;5159521;27;40613;-84
2023/06/24 01:59:48;;;;;;;3.80;3.50;;;;;;;16.02;73.21;99715.66;5160299;27;41789;-82
2023/06/24 02:02:20;;;;;;;6.00;3.30;;;;;;;15.84;73.46;99684.91;5162817;27;42343;-83
2023/06/24 02:04:50;;;;;;;4.23;3.83;;;;;;;15.98;73.48;99718.66;5177560;27;39928;-85
2023/06/24 02:07:21;;;;;;;4.03;3.73;;;;;;;15.71;73.80;99684.91;5180549;27;41978;-82
2023/06/24 02:09:52;;;;;;;4.17;3.77;;;;;;;15.80;73.94;99696.78;5177298;27;43522;-85
2023/06/24 02:12:21;;;;;;;4.03;3.73;;;;;;;15.84;74.41;99706.28;5178815;27;43171;-81
2023/06/24 02:14:51;;;;;;;4.30;3.90;;;;;;;15.82;73.88;99708.22;5163494;27;38990;-83
2023/06/24 02:17:22;;;;;;;4.30;3.90;;;;;;;15.72;74.51;99694.63;5162956;27;41439;-84
2023/06/24 02:19:51;;;;;;;3.90;3.50;;;;;;;15.77;74.34;99697.00;5162843;27;44308;-83
2023/06/24 02:22:20;;;;;;;3.77;3.47;;;;;;;15.71;74.67;99694.75;5180386;27;42345;-82
2023/06/24 02:24:50;;;;;;;4.07;3.47;;;;;;;15.75;74.67;99701.59;5180272;27;41672;-83
2023/06/24 02:27:19;;;;;;;4.07;3.77;;;;;;;15.59;74.55;99684.91;5162691;27;40685;-85
2023/06/24 02:29:47;;;;;;;4.17;3.77;;;;;;;15.60;74.40;99697.31;5180098;27;41867;-84
2023/06/24 02:32:15;;;;;;;4.67;3.87;;;;;;;15.68;74.71;99716.34;5198398;27;42049;-83
2023/06/24 02:34:45;;;;;;;4.20;3.60;;;;;;;15.52;74.90;99688.94;5180222;27;38789;-83
2023/06/24 02:37:12;;;;;;;4.17;3.77;;;;;;;15.63;74.71;99703.28;5162669;27;40755;-84
2023/06/24 02:39:44;;;;;;;3.80;3.50;;;;;;;15.52;74.85;99684.47;5162676;27;41522;-84
2023/06/24 02:42:12;;;;;;;3.70;3.40;;;;;;;15.61;74.77;99702.53;5178580;27;43297;-82
2023/06/24 02:44:40;;;;;;;3.63;3.27;;;;;;;15.50;74.81;99685.53;5180225;27;40391;-85
2023/06/24 02:47:10;;;;;;;3.90;3.60;;;;;;;15.44;74.82;99682.34;5179739;27;41815;-82
2023/06/24 02:49:39;;;;;;;4.30;3.90;;;;;;;15.58;74.87;99697.41;5162714;27;43248;-82
2023/06/24 02:52:09;;;;;;;3.57;3.27;;;;;;;15.58;74.97;99699.25;5179799;27;42256;-81
2023/06/24 02:54:39;;;;;;;4.30;3.90;;;;;;;15.40;75.31;99667.50;5162553;27;38939;-83
2023/06/24 02:57:28;;;;;;;4.00;3.60;;;;;;;15.57;74.97;99705.56;5136719;27;40742;-82
2023/06/24 03:00:15;;;;;;;3.87;3.47;;;;;;;15.50;75.01;99696.22;5179890;27;41665;-83
2023/06/24 03:03:07;;;;;;;3.60;3.30;;;;;;;15.55;75.00;99710.16;5175318;27;42193;-84
2023/06/24 03:05:37;;;;;;;4.50;4.00;;;;;;;15.43;75.19;99696.66;5175878;27;39864;-81
2023/06/24 03:08:07;;;;;;;4.23;3.83;;;;;;;15.51;75.59;99712.13;5160920;27;40642;-82
2023/06/24 03:10:37;;;;;;;4.03;3.63;;;;;;;15.48;75.45;99708.81;5161214;27;41611;-83
2023/06/24 03:13:08;;;;;;;3.83;3.53;;;;;;;15.52;75.51;99710.31;5160549;27;41048;-83
2023/06/24 03:15:46;;;;;;;4.57;4.17;;;;;;;15.44;75.49;99697.50;5161634;27;41024;-82
2023/06/24 03:18:15;;;;;;;4.00;3.70;;;;;;;15.50;75.96;99710.41;5178237;27;41710;-85
2023/06/24 03:20:44;;;;;;;3.80;3.50;;;;;;;15.43;75.77;99695.78;5160682;27;41614;-84
2023/06/24 03:23:18;;;;;;;5.77;5.07;;;;;;;15.38;75.99;99688.09;5178054;27;42233;-83
2023/06/24 03:25:46;;;;;;;6.13;4.63;;;;;;;15.47;76.30;99699.94;5178617;27;40036;-83
2023/06/24 03:28:14;;;;;;;4.83;4.40;;;;;;;15.59;76.82;99723.16;5178374;27;42483;-83
2023/06/24 03:30:48;;;;;;;5.70;5.20;;;;;;;15.64;77.64;99722.84;5160773;27;42724;-82
2023/06/24 03:33:19;;;;;;;4.60;4.20;;;;;;;15.65;77.81;99719.22;5160379;27;41124;-84
2023/06/24 03:35:48;;;;;;;5.60;5.03;;;;;;;15.70;77.41;99717.91;5161824;27;38689;-83
2023/06/24 03:38:22;;;;;;;4.43;4.03;;;;;;;15.64;77.48;99707.69;5161436;27;40963;-84
2023/06/24 03:40:50;;;;;;;4.80;4.40;;;;;;;15.75;77.58;99709.59;5161893;27;42659;-82
2023/06/24 03:43:18;;;;;;;4.83;4.40;;;;;;;15.72;77.54;99708.00;5160881;27;42373;-82
2023/06/24 03:45:45;;;;;;;4.07;3.67;;;;;;;15.80;77.88;99718.16;5159906;27;38901;-85
2023/06/24 03:48:13;;;;;;;4.60;4.20;;;;;;;15.85;77.96;99723.16;5159985;27;41869;-85
2023/06/24 03:50:41;;;;;;;4.87;4.43;;;;;;;15.89;77.74;99720.16;5177775;27;42587;-84
2023/06/24 03:53:09;;;;;;;5.20;4.67;;;;;;;15.96;77.64;99725.91;5177822;27;42436;-83
2023/06/24 03:55:39;;;;;;;4.27;3.87;;;;;;;16.00;77.58;99728.28;5177976;27;40050;-83
2023/06/24 03:58:08;;;;;;;4.77;4.33;;;;;;;16.05;77.40;99731.50;5178068;27;42652;-82
2023/06/24 04:00:40;;;;;;;4.30;3.90;;;;;;;16.08;77.53;99739.25;5159858;27;41545;-84
2023/06/24 04:03:08;;;;;;;4.50;4.10;;;;;;;16.09;77.36;99743.66;5159603;27;41028;-84
2023/06/24 04:05:36;;;;;;;4.27;3.87;;;;;;;16.14;77.09;99740.66;5177786;27;40780;-84
2023/06/24 04:08:07;;;;;;;4.70;4.10;;;;;;;16.08;76.85;99731.25;5196096;27;42672;-83
2023/06/24 04:10:35;;;;;;;4.13;3.77;;;;;;;16.23;76.84;99740.00;5159947;27;42549;-82
2023/06/24 04:13:04;;;;;;;4.33;3.93;;;;;;;16.30;76.61;99740.44;5160059;27;41638;-80
2023/06/24 04:15:32;;;;;;;4.33;3.93;;;;;;;16.38;76.40;99748.75;5160071;27;39134;-83
2023/06/24 04:18:00;;;;;;;4.73;4.10;;;;;;;16.39;76.43;99745.09;5159774;27;40793;-83
2023/06/24 04:20:28;;;;;;;4.40;4.00;;;;;;;16.43;76.21;99741.25;5177599;27;43215;-84
2023/06/24 04:22:56;;;;;;;4.10;3.80;;;;;;;16.46;75.83;99747.22;5158796;27;41271;-84
2023/06/24 04:25:23;;;;;;;4.13;3.73;;;;;;;16.61;76.00;99761.28;5159838;27;39288;-84
2023/06/24 04:27:52;;;;;;;4.57;3.87;;;;;;;16.57;75.56;99749.09;5159612;27;40751;-82
2023/06/24 04:30:21;;;;;;;4.00;3.70;;;;;;;16.66;75.62;99753.81;5159570;27;42193;-84
2023/06/24 04:32:49;;;;;;;4.33;3.93;;;;;;;16.80;75.24;99761.69;5159468;27;40920;-84
2023/06/24 04:35:17;;;;;;;5.33;4.03;;;;;;;16.87;75.27;99760.25;5175563;27;41048;-82
2023/06/24 04:37:45;;;;;;;4.30;3.63;;;;;;;16.94;75.15;99775.88;5160536;27;40645;-83
2023/06/24 04:40:14;;;;;;;4.80;4.00;;;;;;;17.01;75.29;99777.13;5160768;27;42571;-83
2023/06/24 04:42:41;;;;;;;5.43;4.60;;;;;;;17.08;75.22;99789.06;5177869;27;41415;-85
2023/06/24 04:45:10;;;;;;;4.37;3.97;;;;;;;17.10;74.92;99768.41;5178197;27;38919;-82
2023/06/24 04:47:39;;;;;;;5.57;4.40;;;;;;;17.27;75.26;99786.75;5160395;27;40664;-83
2023/06/24 04:50:09;;;;;;;4.83;4.40;;;;;;;17.36;75.33;99786.03;5177952;27;43695;-85
2023/06/24 04:52:37;;;;;;;4.83;4.33;;;;;;;17.51;75.14;99781.34;5196375;27;41687;-82
2023/06/24 04:55:06;;;;;;;4.70;4.30;;;;;;;17.52;74.91;99765.16;5177964;27;40323;-82
2023/06/24 04:57:35;;;;;;;6.20;4.30;;;;;;;17.67;74.56;99773.03;5186108;27;40648;-81
2023/06/24 05:00:04;;;;;;;4.77;4.37;;;;;;;17.79;74.29;99782.81;5196259;27;43147;-81
2023/06/24 05:02:32;;;;;;;4.37;3.97;;;;;;;17.89;74.47;99783.78;5180914;27;43993;-84
2023/06/24 05:05:02;;;;;;;4.50;4.10;;;;;;;18.02;74.28;99795.25;5159192;27;38882;-84
2023/06/24 05:07:29;;;;;;;4.63;4.23;;;;;;;18.12;74.16;99785.50;5176516;27;42900;-84
2023/06/24 05:09:57;;;;;;;5.10;4.70;;;;;;;18.13;73.84;99765.78;5195593;27;42825;-82
2023/06/24 05:12:25;;;;;;;5.33;4.93;;;;;;;18.33;73.56;99790.13;5195649;27;42288;-84
2023/06/24 05:14:53;;;;;;;5.37;4.87;;;;;;;18.29;73.83;99771.63;5159501;27;39021;-83
2023/06/24 05:17:21;;;;;;;5.27;4.80;;;;;;;18.44;73.43;99779.41;5176197;27;40742;-86
2023/06/24 05:19:49;;;;;;;4.73;4.27;;;;;;;18.63;72.99;99801.13;5176587;27;41629;-84
2023/06/24 05:22:18;;;;;;;5.23;4.60;;;;;;;18.73;73.11;99802.09;5159009;27;41613;-86
2023/06/24 05:24:46;;;;;;;4.53;4.07;;;;;;;18.85;72.96;99806.47;5176296;27;40061;-83
2023/06/24 05:27:13;;;;;;;4.40;4.00;;;;;;;18.96;72.50;99803.75;5158824;27;41019;-83
2023/06/24 05:29:41;;;;;;;4.70;4.30;;;;;;;19.08;72.38;99801.03;5159259;27;41888;-83
2023/06/24 05:32:09;;;;;;;4.33;4.03;;;;;;;19.18;72.04;99796.59;5176337;27;41011;-83
2023/06/24 05:34:37;;;;;;;4.60;4.20;;;;;;;19.28;72.18;99792.19;5160405;27;38853;-84
2023/06/24 05:37:05;;;;;;;4.50;4.10;;;;;;;19.38;71.98;99801.19;5163284;27;41720;-84
2023/06/24 05:39:34;;;;;;;4.60;4.20;;;;;;;19.50;71.34;99796.66;5163787;27;43306;-85
2023/06/24 05:42:02;;;;;;;5.07;4.57;;;;;;;19.59;71.09;99791.34;5163159;27;41295;-83
2023/06/24 05:44:29;;;;;;;5.23;4.47;;;;;;;19.70;71.03;99791.28;5163616;27;41288;-82
2023/06/24 05:46:57;;;;;;;4.80;4.23;;;;;;;19.77;70.70;99780.00;5163891;27;41010;-82
2023/06/24 05:49:25;;;;;;;5.73;4.63;;;;;;;19.96;70.41;99804.31;5180879;27;42464;-82
2023/06/24 05:51:53;;;;;;;4.23;3.83;;;;;;;20.06;69.85;99810.59;5163249;27;42316;-84
2023/06/24 05:54:20;;;;;;;4.37;3.97;;;;;;;20.18;69.36;99809.53;5163599;27;40056;-85
2023/06/24 05:56:49;;;;;;;4.60;4.20;;;;;;;20.32;68.98;99811.03;5180829;27;41733;-84
2023/06/24 05:59:17;;;;;;;4.93;4.43;;;;;;;20.37;68.58;99798.91;5163446;27;41768;-86
2023/06/24 06:01:45;;;;;;;5.07;4.57;;;;;;;20.57;67.51;99815.13;5162184;27;41300;-84
2023/06/24 06:04:12;;;;;;;5.23;4.73;;;;;;;20.58;67.35;99803.38;5179313;27;41417;-85
2023/06/24 06:06:40;;;;;;;5.60;5.00;;;;;;;20.76;66.61;99820.59;5161603;27;41838;-83
2023/06/24 06:09:08;;;;;;;6.67;4.10;;;;;;;20.86;66.63;99818.78;5162190;27;41633;-84
2023/06/24 06:11:36;;;;;;;4.83;4.27;;;;;;;20.96;66.50;99816.97;5179100;27;42413;-82
2023/06/24 06:14:05;;;;;;;4.57;4.17;;;;;;;21.00;66.21;99807.63;5179412;27;39955;-83
2023/06/24 06:16:33;;;;;;;4.50;4.13;;;;;;;21.23;65.63;99819.03;5161735;27;40789;-83
2023/06/24 06:19:01;;;;;;;4.10;3.60;;;;;;;21.38;65.46;99822.16;5179522;27;41906;-85
2023/06/24 06:21:28;;;;;;;6.33;4.97;;;;;;;21.51;64.34;99828.94;5179127;27;43427;-85
2023/06/24 06:23:56;;;;;;;4.70;4.20;;;;;;;21.53;64.46;99809.94;5198285;27;39820;-86
2023/06/24 06:26:24;;;;;;;4.80;4.30;;;;;;;21.86;63.58;99839.19;5179178;27;41768;-82
2023/06/24 06:28:53;;;;;;;4.10;3.70;;;;;;;22.01;63.24;99830.66;5179403;27;42740;-83
2023/06/24 06:31:22;;;;;;;5.47;4.97;;;;;;;22.04;62.56;99814.19;5161088;27;41025;-84
2023/06/24 06:33:50;;;;;;;4.53;3.73;;;;;;;22.25;62.63;99822.94;5162108;27;41134;-83
2023/06/24 06:36:18;;;;;;;5.53;5.03;;;;;;;22.36;60.81;99824.63;5162271;27;41163;-87
2023/06/24 06:38:46;;;;;;;4.43;3.93;;;;;;;22.48;60.74;99824.28;5162800;27;42812;-83
2023/06/24 06:41:13;;;;;;;4.50;4.10;;;;;;;22.66;60.14;99815.38;5180328;27;43240;-83
2023/06/24 06:43:41;;;;;;;4.40;4.00;;;;;;;22.97;59.45;99815.97;5198645;27;40012;-83
2023/06/24 06:46:09;;;;;;;3.90;3.60;;;;;;;23.35;58.17;99822.97;5179627;27;43044;-86
2023/06/24 06:48:38;;;;;;;3.90;3.60;;;;;;;23.50;57.98;99816.88;5198868;27;42728;-85
2023/06/24 06:51:06;;;;;;;4.33;3.83;;;;;;;23.75;57.57;99828.75;5180006;27;42245;-85
2023/06/24 06:53:33;;;;;;;4.13;3.67;;;;;;;23.80;57.00;99818.34;5162132;27;39146;-84
2023/06/24 06:56:01;;;;;;;4.47;4.03;;;;;;;23.89;57.19;99820.09;5179404;27;41836;-86
2023/06/24 06:58:29;;;;;;;6.07;4.30;;;;;;;23.94;56.12;99828.59;5198435;27;42558;-83
2023/06/24 07:01:01;;;;;;;4.77;4.17;;;;;;;23.88;56.09;99807.56;5178809;27;41597;-85
2023/06/24 07:03:29;;;;;;;3.83;3.53;;;;;;;24.10;55.77;99825.16;5177762;27;39974;-84
2023/06/24 07:05:58;;;;;;;4.53;4.13;;;;;;;24.10;55.22;99808.09;5160971;27;41969;-83
2023/06/24 07:08:26;;;;;;;4.83;4.03;;;;;;;24.25;55.47;99812.75;5196735;27;43409;-86
2023/06/24 07:10:54;;;;;;;4.60;4.20;;;;;;;24.39;54.47;99814.03;5160849;27;41450;-82
2023/06/24 07:13:22;;;;;;;5.20;4.50;;;;;;;24.61;54.00;99812.63;5178476;27;41037;-85
2023/06/24 07:15:50;;;;;;;7.67;4.17;;;;;;;24.70;54.71;99795.41;5161075;27;40762;-83
2023/06/24 07:18:17;;;;;;;3.80;3.50;;;;;;;24.98;54.09;99815.00;5160517;27;44159;-83
2023/06/24 07:20:45;;;;;;;4.70;4.27;;;;;;;25.14;52.72;99819.63;5178075;27;41957;-84
2023/06/24 07:23:15;;;;;;;4.40;4.00;;;;;;;25.25;51.67;99833.72;5196642;27;40858;-84
2023/06/24 07:25:43;;;;;;;4.37;3.70;;;;;;;25.25;51.47;99819.31;5178039;27;40950;-84
2023/06/24 07:28:10;;;;;;;4.53;3.80;;;;;;;25.46;52.07;99829.69;5177920;27;42833;-82
2023/06/24 07:30:38;;;;;;;4.43;4.03;;;;;;;25.46;51.13;99802.59;5178325;27;42430;-81
2023/06/24 07:33:06;;;;;;;4.83;4.33;;;;;;;25.83;50.27;99838.25;5178242;27;39868;-87
2023/06/24 07:35:34;;;;;;;5.37;4.47;;;;;;;26.12;49.51;99854.84;5179223;27;40619;-85
2023/06/24 07:38:02;;;;;;;4.43;4.03;;;;;;;26.29;47.76;99850.28;5179190;27;42953;-86
2023/06/24 07:40:31;;;;;;;4.37;3.93;;;;;;;26.68;47.92;99861.22;5179242;27;42233;-82
2023/06/24 07:42:59;;;;;;;3.73;3.43;;;;;;;27.06;47.46;99853.28;5161637;27;38863;-85
2023/06/24 07:45:27;;;;;;;4.10;3.80;;;;;;;27.43;45.92;99871.63;5161439;27;40790;-85
2023/06/24 07:47:55;;;;;;;4.13;3.80;;;;;;;27.94;44.83;99864.66;5178807;27;41810;-83
2023/06/24 07:50:23;;;;;;;3.77;3.47;;;;;;;28.81;43.06;99881.38;5179137;27;41188;-84
2023/06/24 07:52:51;;;;;;;4.10;3.80;;;;;;;29.24;42.48;99858.66;5178963;27;40957;-86
2023/06/24 07:55:19;;;;;;;4.80;4.40;;;;;;;29.89;41.05;99884.19;5177098;27;43552;-84
2023/06/24 07:57:48;;;;;;;4.80;4.40;;;;;;;31.03;39.77;99892.03;5158850;27;41796;-83
2023/06/24 08:00:17;;;;;;;4.73;3.87;;;;;;;32.79;36.52;99912.91;5196611;27;42476;-84
2023/06/24 08:02:44;;;;;;;4.40;4.00;;;;;;;34.66;34.18;99924.41;5177188;27;38905;-83
2023/06/24 08:05:12;;;;;;;4.20;3.80;;;;;;;36.30;31.12;99917.94;5196178;27;42548;-86
2023/06/24 08:07:40;;;;;;;3.97;3.50;;;;;;;37.87;29.10;99949.16;5177177;27;42934;-87
2023/06/24 08:10:09;;;;;;;3.88;3.58;;;;;;;38.90;27.75;99941.53;5177290;27;41812;-87
2023/06/24 08:12:36;;;;;;;3.80;3.50;;;;;;;39.58;26.60;99915.31;5159955;27;39624;-87
2023/06/24 08:15:07;;;;;;;3.08;2.88;;;;;;;40.90;25.92;99948.84;5159913;27;40930;-86
2023/06/24 08:17:35;;;;;;;3.72;3.42;;;;;;;41.75;24.13;99954.28;5177302;27;42772;-84
2023/06/24 08:20:03;;;;;;;4.07;3.58;;;;;;;42.30;22.81;99957.19;5177289;27;41277;-85
2023/06/24 08:22:31;;;;;;;3.30;3.00;;;;;;;42.58;23.60;99947.47;5159628;27;38821;-85
2023/06/24 08:25:00;;;;;;;3.53;3.22;;;;;;;42.51;22.83;99937.72;5177088;27;40459;-87
2023/06/24 08:27:27;;;;;;;3.50;3.20;;;;;;;42.18;23.50;99937.13;5177121;27;41849;-87
2023/06/24 08:29:55;;;;;;;3.30;3.00;;;;;;;41.80;23.52;99905.03;5176976;27;42341;-84
2023/06/24 08:32:24;;;;;;;4.03;3.50;;;;;;;41.39;23.23;99943.00;5177122;27;40036;-87
2023/06/24 08:34:52;;;;;;;3.30;3.00;;;;;;;40.67;24.05;99921.41;5177764;27;41930;-86
2023/06/24 08:37:20;;;;;;;3.50;3.08;;;;;;;40.12;24.67;99922.59;5160628;27;42206;-90
2023/06/24 08:39:50;;;;;;;3.20;2.80;;;;;;;39.38;24.95;99902.88;5161070;27;42472;-86
2023/06/24 08:42:17;;;;;;;6.15;3.20;;;;;;;38.91;26.05;99901.66;5178153;27;39071;-85
2023/06/24 08:44:45;;;;;;;3.10;2.90;;;;;;;38.50;26.19;99906.56;5196578;27;41836;-88
2023/06/24 08:47:14;;;;;;;3.60;3.30;;;;;;;38.11;24.74;99925.00;5178158;27;42740;-88
2023/06/24 08:49:48;;;;;;;3.72;3.42;;;;;;;37.14;26.50;99890.94;5160712;27;40884;-85
2023/06/24 08:52:17;;;;;;;3.97;3.67;;;;;;;36.81;27.50;99895.19;5176232;27;41027;-83
2023/06/24 08:54:48;;;;;;;3.30;3.10;;;;;;;36.46;27.51;99894.31;5160468;27;41135;-86
2023/06/24 08:57:18;;;;;;;4.03;3.67;;;;;;;36.00;27.55;99896.72;5160104;27;41764;-86
2023/06/24 08:59:47;;;;;;;3.87;3.50;;;;;;;35.81;29.34;99880.50;5159951;27;41054;-87
2023/06/24 09:02:14;;;;;;;3.77;3.47;;;;;;;35.74;27.46;99896.25;5196411;27;40745;-87
2023/06/24 09:04:44;;;;;;;3.70;3.40;;;;;;;36.11;28.51;99885.94;5160332;27;40914;-85
2023/06/24 09:07:11;;;;;;;4.33;3.90;;;;;;;36.39;26.92;99899.94;5177277;27;43266;-84
2023/06/24 09:09:44;;;;;;;4.33;3.93;;;;;;;36.16;26.07;99917.28;5198940;27;42251;-86
2023/06/24 09:12:14;;;;;;;3.50;3.20;;;;;;;36.20;26.80;99901.09;5164334;27;40284;-86
2023/06/24 09:14:42;;;;;;;3.27;2.97;;;;;;;36.73;26.55;99884.50;5163832;27;41148;-87
2023/06/24 09:17:10;;;;;;;3.87;3.57;;;;;;;37.06;25.81;99894.91;5181679;27;43471;-86
2023/06/24 09:19:39;;;;;;;3.70;3.30;;;;;;;36.72;26.14;99887.53;5181835;27;42516;-83
2023/06/24 09:22:16;;;;;;;3.63;3.33;;;;;;;36.34;27.39;99866.72;5181750;27;40375;-84
2023/06/24 09:24:44;;;;;;;3.70;3.40;;;;;;;36.39;26.59;99872.34;5196588;27;41872;-84
2023/06/24 09:27:14;;;;;;;3.53;3.23;;;;;;;36.48;26.28;99886.63;5181353;27;41809;-85
2023/06/24 09:29:43;;;;;;;3.57;3.23;;;;;;;37.14;25.96;99886.25;5164119;27;41251;-88
2023/06/24 09:32:11;;;;;;;3.60;3.30;;;;;;;37.39;25.72;99872.97;5163905;27;38716;-85
2023/06/24 09:34:39;;;;;;;3.20;3.00;;;;;;;37.49;25.74;99869.56;5163868;27;41859;-84
2023/06/24 09:37:09;;;;;;;3.50;3.20;;;;;;;36.48;26.68;99859.03;5163558;27;42714;-86
2023/06/24 09:39:38;;;;;;;3.40;3.10;;;;;;;35.46;27.10;99861.88;5163631;27;42572;-83
2023/06/24 09:42:07;;;;;;;3.97;3.57;;;;;;;34.94;28.09;99852.34;5163359;27;40090;-84
2023/06/24 09:44:35;;;;;;;3.30;3.00;;;;;;;34.56;29.21;99858.88;5163347;27;41758;-83
2023/06/24 09:47:03;;;;;;;3.70;3.23;;;;;;;33.94;29.57;99847.97;5180987;27;42789;-85
2023/06/24 09:49:31;;;;;;;3.53;3.23;;;;;;;33.02;29.99;99802.63;5180799;27;43084;-84
2023/06/24 09:52:00;;;;;;;3.03;2.80;;;;;;;35.22;28.37;99849.91;5163495;27;39860;-85
2023/06/24 09:54:30;;;;;;;3.03;2.80;;;;;;;37.60;25.91;99862.31;5163716;27;40980;-85
2023/06/24 09:57:02;;;;;;;3.00;2.80;;;;;;;38.91;24.34;99873.97;5163749;27;41736;-86
2023/06/24 09:59:33;;;;;;;2.90;2.70;;;;;;;39.43;24.08;99858.63;5163326;27;42247;-83
2023/06/24 10:02:01;;;;;;;2.80;2.60;;;;;;;39.71;22.65;99878.84;5179083;27;39546;-83
2023/06/24 10:04:29;;;;;;;2.70;2.50;;;;;;;39.37;23.24;99867.94;5161631;27;41674;-82
2023/06/24 10:06:57;;;;;;;3.45;3.15;;;;;;;38.42;23.62;99868.25;5161577;27;42774;-86
2023/06/24 10:09:25;;;;;;;3.07;2.80;;;;;;;37.85;25.10;99837.91;5179391;27;42234;-82
2023/06/24 10:11:54;;;;;;;3.23;3.00;;;;;;;37.50;25.88;99784.72;5161806;27;40094;-84
2023/06/24 10:14:22;;;;;;;3.20;2.90;;;;;;;37.06;26.26;99806.53;5197849;27;42375;-82
2023/06/24 10:16:50;;;;;;;3.40;3.17;;;;;;;36.18;26.59;99799.28;5161806;27;42033;-86
2023/06/24 10:19:21;;;;;;;3.60;3.33;;;;;;;36.37;27.16;99812.97;5198044;27;43279;-86
2023/06/24 10:21:52;;;;;;;3.60;3.30;;;;;;;36.72;26.59;99821.25;5175770;27;40926;-85
2023/06/24 10:24:30;;;;;;;3.35;3.08;;;;;;;36.78;26.16;99826.63;5161908;27;41781;-87
2023/06/24 10:27:04;;;;;;;3.47;3.22;;;;;;;36.74;26.45;99824.59;5178470;27;43008;-83
2023/06/24 10:29:33;;;;;;;2.97;2.77;;;;;;;36.41;24.60;99841.75;5175898;27;42268;-85
2023/06/24 10:32:06;;;;;;;3.20;2.93;;;;;;;36.14;25.70;99825.63;5161233;27;39100;-86
2023/06/24 10:34:36;;;;;;;2.97;2.77;;;;;;;35.97;26.13;99820.00;5162426;27;42474;-85
2023/06/24 10:37:05;;;;;;;3.38;3.05;;;;;;;36.23;27.54;99812.34;5179488;27;41947;-88
2023/06/24 10:39:37;;;;;;;3.35;3.05;;;;;;;36.54;25.87;99820.28;5179924;27;42154;-87
2023/06/24 10:42:29;;;;;;;4.10;3.70;;;;;;;36.75;25.22;99809.72;5198494;27;40941;-83
2023/06/24 10:44:58;;;;;;;3.20;2.90;;;;;;;36.95;26.12;99782.53;5176513;27;42460;-87
2023/06/24 10:47:27;;;;;;;3.43;3.20;;;;;;;37.13;25.87;99790.63;5162235;27;41930;-81
2023/06/24 10:49:55;;;;;;;3.17;2.97;;;;;;;36.99;25.62;99794.75;5179802;27;42299;-84
2023/06/24 10:52:24;;;;;;;3.53;3.20;;;;;;;36.66;24.72;99796.25;5179363;27;39137;-85
2023/06/24 10:54:53;;;;;;;4.95;3.60;;;;;;;36.53;25.65;99779.13;5179798;27;40851;-83
2023/06/24 10:57:25;;;;;;;2.90;2.70;;;;;;;36.37;25.80;99771.56;5179392;27;43960;-85
2023/06/24 10:59:57;;;;;;;3.90;3.60;;;;;;;36.14;27.00;99775.16;5162436;27;41204;-85
2023/06/24 11:02:27;;;;;;;3.03;2.83;;;;;;;36.07;26.28;99752.38;5176604;27;39963;-82
2023/06/24 11:04:57;;;;;;;3.13;2.67;;;;;;;36.04;26.91;99763.88;5160291;27;40667;-83
2023/06/24 11:07:27;;;;;;;3.17;2.97;;;;;;;35.53;27.25;99762.59;5178305;27;42664;-82
2023/06/24 11:09:56;;;;;;;3.77;3.37;;;;;;;34.96;26.70;99762.13;5178700;27;42246;-83
2023/06/24 11:12:26;;;;;;;3.20;3.00;;;;;;;34.47;28.11;99763.97;5160792;27;39954;-85
2023/06/24 11:14:59;;;;;;;3.10;2.90;;;;;;;34.12;29.08;99747.16;5178572;27;40655;-83
2023/06/24 11:17:28;;;;;;;3.40;3.10;;;;;;;33.85;29.64;99743.81;5176862;27;42754;-85
2023/06/24 11:19:58;;;;;;;4.40;3.20;;;;;;;33.61;30.29;99736.38;5178227;27;42586;-82
2023/06/24 11:22:27;;;;;;;4.00;3.70;;;;;;;33.28;30.79;99719.28;5178118;27;39091;-85
2023/06/24 11:24:56;;;;;;;3.50;3.20;;;;;;;33.70;30.89;99732.28;5178409;27;41713;-86
2023/06/24 11:27:27;;;;;;;4.23;3.93;;;;;;;34.18;30.03;99745.41;5160761;27;41769;-86
2023/06/24 11:30:01;;;;;;;3.67;3.37;;;;;;;34.15;28.61;99710.94;5178402;27;41406;-86
2023/06/24 11:32:36;;;;;;;3.50;3.17;;;;;;;34.76;29.40;99742.25;5176562;27;41265;-83
2023/06/24 11:35:06;;;;;;;3.43;3.13;;;;;;;34.95;29.29;99721.88;5161923;27;40587;-86
2023/06/24 11:37:34;;;;;;;3.80;3.50;;;;;;;35.26;27.63;99745.59;5161194;27;41677;-84
2023/06/24 11:40:04;;;;;;;3.80;3.50;;;;;;;35.15;28.13;99744.47;5161427;27;42186;-85
2023/06/24 11:42:33;;;;;;;3.70;3.40;;;;;;;34.90;28.69;99738.25;5178744;27;39459;-88
2023/06/24 11:45:03;;;;;;;3.40;3.17;;;;;;;34.96;29.25;99720.81;5178666;27;40923;-84